Royal Prince — WCX8037 — position and weather

sailwx.info

Track history (hours):
 
Tides and Currents Weather Stations Pressure Air Temp Water Temp Dewpoint Dewpoint Depression Visibility Wind Speed Wind Dir Waves Ship Positions

Royal Prince

Owner: Golden Gate Scenic Steamship Corp, SAN FRANCISCO, CA. More information available from US FCC via Universal Licensing System and Coast Guard Vessel Documentation Center.

Last reported at 2015-Mar-29 03:10 UTC. Time now 2015-Mar-29 09:25 UTC.
Position N 37°49' W 122°25'.

Length 28 m; draft 2.3 m.

Type: Passenger vessel. MMSI: 366975760.

Date/timePositionNaut miles runAvg speedWind from/ knotsBaromVisibWave heightAir tempDewpointWater temp
2015-Mar-29 03:10N 37°49' W 122°25'2 3.8
2015-Mar-29 02:34N 37°49' W 122°28'3 2.8
2015-Mar-29 01:34N 37°50' W 122°25'2 1.9
2015-Mar-29 00:34N 37°49' W 122°25'0 0.0
2015-Mar-28 23:34N 37°49' W 122°25'1 1.4
2015-Mar-28 22:34N 37°48' W 122°23'2 2.4
2015-Mar-28 21:34N 37°49' W 122°26'2 2.2
2015-Mar-28 20:34N 37°49' W 122°24'1 1.1
2015-Mar-28 19:33N 37°49' W 122°25'0 0.0
2015-Mar-28 02:33N 37°49' W 122°25'3 2.7
2015-Mar-28 01:33N 37°50' W 122°22'3 2.7
2015-Mar-28 00:33N 37°49' W 122°25'1 0.9
2015-Mar-27 23:33N 37°50' W 122°25'1 0.9
2015-Mar-27 22:33N 37°49' W 122°25'0 0.0
2015-Mar-27 21:33N 37°49' W 122°25'2 2.5
2015-Mar-27 20:33N 37°49' W 122°28'2 2.5
2015-Mar-27 19:33N 37°49' W 122°25'2 2.4
2015-Mar-27 18:33N 37°49' W 122°28'1 0.8
2015-Mar-27 17:32N 37°49' W 122°27'2 2.0
2015-Mar-27 16:33N 37°49' W 122°25'0 0.0
2015-Mar-27 03:08N 37°49' W 122°25'0 0.0
2015-Mar-27 02:33N 37°49' W 122°25'2 2.3
2015-Mar-27 01:33N 37°50' W 122°23'2 2.3
2015-Mar-27 00:33N 37°49' W 122°25'1 1.1
2015-Mar-26 23:33N 37°50' W 122°25'1 1.1
2015-Mar-26 22:33N 37°49' W 122°25'0 0.0
2015-Mar-26 21:33N 37°49' W 122°25'3 2.9
2015-Mar-26 20:33N 37°49' W 122°29'3 2.9
2015-Mar-26 19:33N 37°49' W 122°25'2 2.3
2015-Mar-26 18:33N 37°49' W 122°28'1 0.8
2015-Mar-26 17:33N 37°49' W 122°27'2 2.0
2015-Mar-26 16:34N 37°49' W 122°25'0 0.0
2015-Mar-25 23:11N 37°49' W 122°25'2 3.5
2015-Mar-25 22:33N 37°49' W 122°27'2 2.5
2015-Mar-25 21:33N 37°49' W 122°24'1 0.6
2015-Mar-25 20:33N 37°49' W 122°25'3 2.9
2015-Mar-25 19:33N 37°49' W 122°28'3 2.9
2015-Mar-25 18:33N 37°49' W 122°25'0 0.0
2015-Mar-25 17:33N 37°49' W 122°25'4 3.7
2015-Mar-25 16:33N 37°52' W 122°25'1 0.6
2015-Mar-25 15:33N 37°52' W 122°26'4 3.7
2015-Mar-25 14:33N 37°49' W 122°25'1 0.1
2015-Mar-24 23:33N 37°50' W 122°25'1 1.2
2015-Mar-24 22:33N 37°49' W 122°25'0 0.1
2015-Mar-24 21:34N 37°49' W 122°25'1 1.5
2015-Mar-24 20:33N 37°49' W 122°27'1 1.5
2015-Mar-24 19:34N 37°49' W 122°25'2 2.2
2015-Mar-24 18:34N 37°49' W 122°28'0 0.4
2015-Mar-24 17:33N 37°49' W 122°27'2 0.1
2015-Mar-24 02:33N 37°49' W 122°25'3 2.7
2015-Mar-24 01:33N 37°50' W 122°22'3 2.8
2015-Mar-24 00:33N 37°49' W 122°25'1 0.7
2015-Mar-23 23:33N 37°49' W 122°25'1 0.8
2015-Mar-23 22:33N 37°49' W 122°25'0 0.0
2015-Mar-23 21:33N 37°49' W 122°25'3 3.0
2015-Mar-23 20:34N 37°49' W 122°29'3 3.0
2015-Mar-23 19:34N 37°49' W 122°25'2 2.1
2015-Mar-23 18:34N 37°49' W 122°27'1 1.0
2015-Mar-23 17:34N 37°50' W 122°27'2 0.1
2015-Mar-23 02:33N 37°49' W 122°25'3 2.6
2015-Mar-23 01:33N 37°50' W 122°22'3 2.6
2015-Mar-23 00:33N 37°49' W 122°25'1 0.7
2015-Mar-22 23:33N 37°49' W 122°25'1 0.7
2015-Mar-22 22:33N 37°49' W 122°25'0 0.1
2015-Mar-22 21:33N 37°49' W 122°25'2 2.2
2015-Mar-22 20:34N 37°49' W 122°28'2 2.2
2015-Mar-22 19:34N 37°49' W 122°25'1 1.5
2015-Mar-22 18:33N 37°49' W 122°27'1 0.9
2015-Mar-22 17:33N 37°50' W 122°28'2 0.1
2015-Mar-21 23:34N 37°50' W 122°25'1 1.1
2015-Mar-21 22:33N 37°49' W 122°25'0 0.0
2015-Mar-21 21:33N 37°49' W 122°25'2 2.4
2015-Mar-21 20:33N 37°49' W 122°28'2 2.4
2015-Mar-21 19:33N 37°49' W 122°25'1 1.4
2015-Mar-21 18:33N 37°49' W 122°27'1 0.8
2015-Mar-21 17:33N 37°50' W 122°27'2 2.0
2015-Mar-21 16:33N 37°49' W 122°25'0 0.0
2015-Mar-21 02:33N 37°49' W 122°25'3 2.7
2015-Mar-21 01:33N 37°50' W 122°22'3 2.7
2015-Mar-21 00:33N 37°49' W 122°25'1 1.4
2015-Mar-20 23:33N 37°50' W 122°26'1 1.4
2015-Mar-20 22:33N 37°49' W 122°25'0 0.0
2015-Mar-20 21:33N 37°49' W 122°25'3 2.6
2015-Mar-20 20:33N 37°49' W 122°28'3 2.7
2015-Mar-20 19:33N 37°49' W 122°25'1 1.4
2015-Mar-20 18:33N 37°49' W 122°27'1 1.5
2015-Mar-20 17:33N 37°49' W 122°28'3 0.2
2015-Mar-20 02:33N 37°49' W 122°25'1 1.4
2015-Mar-20 01:33N 37°50' W 122°24'1 1.5
2015-Mar-20 00:33N 37°49' W 122°25'1 0.9
2015-Mar-19 23:33N 37°49' W 122°25'1 0.9
2015-Mar-19 22:33N 37°49' W 122°25'0 0.0
2015-Mar-19 21:33N 37°49' W 122°25'3 2.6
2015-Mar-19 20:33N 37°49' W 122°28'3 2.6
2015-Mar-19 19:33N 37°49' W 122°25'1 1.3
2015-Mar-19 18:33N 37°49' W 122°26'1 1.1
2015-Mar-19 17:33N 37°50' W 122°28'  
Track history (hours):
 
Tides and Currents Weather Stations Pressure Air Temp Water Temp Dewpoint Dewpoint Depression Visibility Wind Speed Wind Dir Waves Ship Positions

Royal Prince

Owner: Golden Gate Scenic Steamship Corp, SAN FRANCISCO, CA. More information available from US FCC via Universal Licensing System and Coast Guard Vessel Documentation Center.

Last reported at 2015-Mar-29 03:10 UTC. Time now 2015-Mar-29 09:25 UTC.
Position N 37°49' W 122°25'.

Length 28 m; draft 2.3 m.

Type: Passenger vessel. MMSI: 366975760.

Date/timePositionNaut miles runAvg speedWind from/ knotsBaromVisibWave heightAir tempDewpointWater temp
2015-Mar-29 03:10N 37°49' W 122°25'2 3.8
2015-Mar-29 02:34N 37°49' W 122°28'3 2.8
2015-Mar-29 01:34N 37°50' W 122°25'2 1.9
2015-Mar-29 00:34N 37°49' W 122°25'0 0.0
2015-Mar-28 23:34N 37°49' W 122°25'1 1.4
2015-Mar-28 22:34N 37°48' W 122°23'2 2.4
2015-Mar-28 21:34N 37°49' W 122°26'2 2.2
2015-Mar-28 20:34N 37°49' W 122°24'1 1.1
2015-Mar-28 19:33N 37°49' W 122°25'0 0.0
2015-Mar-28 02:33N 37°49' W 122°25'3 2.7
2015-Mar-28 01:33N 37°50' W 122°22'3 2.7
2015-Mar-28 00:33N 37°49' W 122°25'1 0.9
2015-Mar-27 23:33N 37°50' W 122°25'1 0.9
2015-Mar-27 22:33N 37°49' W 122°25'0 0.0
2015-Mar-27 21:33N 37°49' W 122°25'2 2.5
2015-Mar-27 20:33N 37°49' W 122°28'2 2.5
2015-Mar-27 19:33N 37°49' W 122°25'2 2.4
2015-Mar-27 18:33N 37°49' W 122°28'1 0.8
2015-Mar-27 17:32N 37°49' W 122°27'2 2.0
2015-Mar-27 16:33N 37°49' W 122°25'0 0.0
2015-Mar-27 03:08N 37°49' W 122°25'0 0.0
2015-Mar-27 02:33N 37°49' W 122°25'2 2.3
2015-Mar-27 01:33N 37°50' W 122°23'2 2.3
2015-Mar-27 00:33N 37°49' W 122°25'1 1.1
2015-Mar-26 23:33N 37°50' W 122°25'1 1.1
2015-Mar-26 22:33N 37°49' W 122°25'0 0.0
2015-Mar-26 21:33N 37°49' W 122°25'3 2.9
2015-Mar-26 20:33N 37°49' W 122°29'3 2.9
2015-Mar-26 19:33N 37°49' W 122°25'2 2.3
2015-Mar-26 18:33N 37°49' W 122°28'1 0.8
2015-Mar-26 17:33N 37°49' W 122°27'2 2.0
2015-Mar-26 16:34N 37°49' W 122°25'0 0.0
2015-Mar-25 23:11N 37°49' W 122°25'2 3.5
2015-Mar-25 22:33N 37°49' W 122°27'2 2.5
2015-Mar-25 21:33N 37°49' W 122°24'1 0.6
2015-Mar-25 20:33N 37°49' W 122°25'3 2.9
2015-Mar-25 19:33N 37°49' W 122°28'3 2.9
2015-Mar-25 18:33N 37°49' W 122°25'0 0.0
2015-Mar-25 17:33N 37°49' W 122°25'4 3.7
2015-Mar-25 16:33N 37°52' W 122°25'1 0.6
2015-Mar-25 15:33N 37°52' W 122°26'4 3.7
2015-Mar-25 14:33N 37°49' W 122°25'1 0.1
2015-Mar-24 23:33N 37°50' W 122°25'1 1.2
2015-Mar-24 22:33N 37°49' W 122°25'0 0.1
2015-Mar-24 21:34N 37°49' W 122°25'1 1.5
2015-Mar-24 20:33N 37°49' W 122°27'1 1.5
2015-Mar-24 19:34N 37°49' W 122°25'2 2.2
2015-Mar-24 18:34N 37°49' W 122°28'0 0.4
2015-Mar-24 17:33N 37°49' W 122°27'2 0.1
2015-Mar-24 02:33N 37°49' W 122°25'3 2.7
2015-Mar-24 01:33N 37°50' W 122°22'3 2.8
2015-Mar-24 00:33N 37°49' W 122°25'1 0.7
2015-Mar-23 23:33N 37°49' W 122°25'1 0.8
2015-Mar-23 22:33N 37°49' W 122°25'0 0.0
2015-Mar-23 21:33N 37°49' W 122°25'3 3.0
2015-Mar-23 20:34N 37°49' W 122°29'3 3.0
2015-Mar-23 19:34N 37°49' W 122°25'2 2.1
2015-Mar-23 18:34N 37°49' W 122°27'1 1.0
2015-Mar-23 17:34N 37°50' W 122°27'2 0.1
2015-Mar-23 02:33N 37°49' W 122°25'3 2.6
2015-Mar-23 01:33N 37°50' W 122°22'3 2.6
2015-Mar-23 00:33N 37°49' W 122°25'1 0.7
2015-Mar-22 23:33N 37°49' W 122°25'1 0.7
2015-Mar-22 22:33N 37°49' W 122°25'0 0.1
2015-Mar-22 21:33N 37°49' W 122°25'2 2.2
2015-Mar-22 20:34N 37°49' W 122°28'2 2.2
2015-Mar-22 19:34N 37°49' W 122°25'1 1.5
2015-Mar-22 18:33N 37°49' W 122°27'1 0.9
2015-Mar-22 17:33N 37°50' W 122°28'2 0.1
2015-Mar-21 23:34N 37°50' W 122°25'1 1.1
2015-Mar-21 22:33N 37°49' W 122°25'0 0.0
2015-Mar-21 21:33N 37°49' W 122°25'2 2.4
2015-Mar-21 20:33N 37°49' W 122°28'2 2.4
2015-Mar-21 19:33N 37°49' W 122°25'1 1.4
2015-Mar-21 18:33N 37°49' W 122°27'1 0.8
2015-Mar-21 17:33N 37°50' W 122°27'2 2.0
2015-Mar-21 16:33N 37°49' W 122°25'0 0.0
2015-Mar-21 02:33N 37°49' W 122°25'3 2.7
2015-Mar-21 01:33N 37°50' W 122°22'3 2.7
2015-Mar-21 00:33N 37°49' W 122°25'1 1.4
2015-Mar-20 23:33N 37°50' W 122°26'1 1.4
2015-Mar-20 22:33N 37°49' W 122°25'0 0.0
2015-Mar-20 21:33N 37°49' W 122°25'3 2.6
2015-Mar-20 20:33N 37°49' W 122°28'3 2.7
2015-Mar-20 19:33N 37°49' W 122°25'1 1.4
2015-Mar-20 18:33N 37°49' W 122°27'1 1.5
2015-Mar-20 17:33N 37°49' W 122°28'3 0.2
2015-Mar-20 02:33N 37°49' W 122°25'1 1.4
2015-Mar-20 01:33N 37°50' W 122°24'1 1.5
2015-Mar-20 00:33N 37°49' W 122°25'1 0.9
2015-Mar-19 23:33N 37°49' W 122°25'1 0.9
2015-Mar-19 22:33N 37°49' W 122°25'0 0.0
2015-Mar-19 21:33N 37°49' W 122°25'3 2.6
2015-Mar-19 20:33N 37°49' W 122°28'3 2.6
2015-Mar-19 19:33N 37°49' W 122°25'1 1.3
2015-Mar-19 18:33N 37°49' W 122°26'1 1.1
2015-Mar-19 17:33N 37°50' W 122°28'  

Dump ship's entire track history